sensor_id;sensor_type;location;lat;lon;timestamp;P1;durP1;ratioP1;P2;durP2;ratioP2
60859;SDS011;46694;54.382;9.708;2022-09-17T00:00:05;48.57;;;6.43;;
60859;SDS011;46694;54.382;9.708;2022-09-17T00:02:48;32.87;;;5.57;;
60859;SDS011;46694;54.382;9.708;2022-09-17T00:05:33;40.63;;;7.60;;
60859;SDS011;46694;54.382;9.708;2022-09-17T00:08:15;34.37;;;5.50;;
60859;SDS011;46694;54.382;9.708;2022-09-17T00:11:05;30.03;;;5.40;;
60859;SDS011;46694;54.382;9.708;2022-09-17T00:13:52;37.13;;;6.47;;
60859;SDS011;46694;54.382;9.708;2022-09-17T00:19:18;45.60;;;5.00;;
60859;SDS011;46694;54.382;9.708;2022-09-17T00:25:18;45.37;;;6.50;;
60859;SDS011;46694;54.382;9.708;2022-09-17T00:27:58;47.00;;;4.70;;
60859;SDS011;46694;54.382;9.708;2022-09-17T00:30:38;40.33;;;5.27;;
60859;SDS011;46694;54.382;9.708;2022-09-17T00:33:22;41.33;;;7.20;;
60859;SDS011;46694;54.382;9.708;2022-09-17T00:36:02;38.87;;;6.13;;
60859;SDS011;46694;54.382;9.708;2022-09-17T00:38:43;38.23;;;5.43;;
60859;SDS011;46694;54.382;9.708;2022-09-17T00:41:29;37.23;;;6.67;;
60859;SDS011;46694;54.382;9.708;2022-09-17T00:47:37;35.70;;;5.80;;
60859;SDS011;46694;54.382;9.708;2022-09-17T00:50:29;36.97;;;5.53;;
60859;SDS011;46694;54.382;9.708;2022-09-17T00:53:17;42.80;;;5.10;;
60859;SDS011;46694;54.382;9.708;2022-09-17T00:56:04;31.57;;;4.90;;
60859;SDS011;46694;54.382;9.708;2022-09-17T00:58:52;29.33;;;4.80;;
60859;SDS011;46694;54.382;9.708;2022-09-17T01:01:33;34.50;;;5.10;;
60859;SDS011;46694;54.382;9.708;2022-09-17T01:04:17;32.80;;;6.10;;
60859;SDS011;46694;54.382;9.708;2022-09-17T01:07:13;30.40;;;4.27;;
60859;SDS011;46694;54.382;9.708;2022-09-17T01:13:30;43.67;;;5.23;;
60859;SDS011;46694;54.382;9.708;2022-09-17T01:32:35;39.23;;;5.00;;
60859;SDS011;46694;54.382;9.708;2022-09-17T01:41:20;35.37;;;4.87;;
60859;SDS011;46694;54.382;9.708;2022-09-17T01:44:23;22.23;;;4.20;;
60859;SDS011;46694;54.382;9.708;2022-09-17T01:47:17;42.33;;;4.60;;
60859;SDS011;46694;54.382;9.708;2022-09-17T01:50:11;28.30;;;4.43;;
60859;SDS011;46694;54.382;9.708;2022-09-17T01:52:55;21.80;;;4.57;;
60859;SDS011;46694;54.382;9.708;2022-09-17T01:55:37;30.57;;;4.60;;
60859;SDS011;46694;54.382;9.708;2022-09-17T01:58:26;35.77;;;4.80;;
60859;SDS011;46694;54.382;9.708;2022-09-17T02:01:13;23.97;;;4.80;;
60859;SDS011;46694;54.382;9.708;2022-09-17T02:04:02;24.13;;;4.87;;
60859;SDS011;46694;54.382;9.708;2022-09-17T02:07:11;34.00;;;5.10;;
60859;SDS011;46694;54.382;9.708;2022-09-17T02:10:00;44.07;;;5.40;;
60859;SDS011;46694;54.382;9.708;2022-09-17T02:12:50;25.10;;;4.87;;
60859;SDS011;46694;54.382;9.708;2022-09-17T02:15:38;27.77;;;3.83;;
60859;SDS011;46694;54.382;9.708;2022-09-17T02:18:25;29.10;;;4.00;;
60859;SDS011;46694;54.382;9.708;2022-09-17T02:21:31;29.23;;;5.00;;
60859;SDS011;46694;54.382;9.708;2022-09-17T02:24:51;28.80;;;6.37;;
60859;SDS011;46694;54.382;9.708;2022-09-17T02:28:01;27.87;;;4.33;;
60859;SDS011;46694;54.382;9.708;2022-09-17T02:31:05;30.07;;;4.07;;
60859;SDS011;46694;54.382;9.708;2022-09-17T02:33:49;30.53;;;4.60;;
60859;SDS011;46694;54.382;9.708;2022-09-17T02:36:33;24.33;;;4.30;;
60859;SDS011;46694;54.382;9.708;2022-09-17T02:39:12;29.17;;;3.97;;
60859;SDS011;46694;54.382;9.708;2022-09-17T02:50:57;30.77;;;3.80;;
60859;SDS011;46694;54.382;9.708;2022-09-17T02:57:37;42.13;;;6.63;;
60859;SDS011;46694;54.382;9.708;2022-09-17T03:00:31;31.13;;;4.13;;
60859;SDS011;46694;54.382;9.708;2022-09-17T03:03:22;41.00;;;4.80;;
60859;SDS011;46694;54.382;9.708;2022-09-17T03:06:09;39.43;;;5.67;;
60859;SDS011;46694;54.382;9.708;2022-09-17T03:08:49;42.23;;;5.37;;
60859;SDS011;46694;54.382;9.708;2022-09-17T03:11:29;32.50;;;4.10;;
60859;SDS011;46694;54.382;9.708;2022-09-17T03:14:27;27.13;;;4.70;;
60859;SDS011;46694;54.382;9.708;2022-09-17T03:17:07;31.43;;;4.90;;
60859;SDS011;46694;54.382;9.708;2022-09-17T03:19:47;29.40;;;4.67;;
60859;SDS011;46694;54.382;9.708;2022-09-17T03:22:27;27.23;;;4.57;;
60859;SDS011;46694;54.382;9.708;2022-09-17T03:25:07;33.83;;;4.40;;
60859;SDS011;46694;54.382;9.708;2022-09-17T03:27:47;24.27;;;4.53;;
60859;SDS011;46694;54.382;9.708;2022-09-17T03:30:26;27.90;;;4.57;;
60859;SDS011;46694;54.382;9.708;2022-09-17T03:33:06;38.57;;;5.93;;
60859;SDS011;46694;54.382;9.708;2022-09-17T03:35:46;28.27;;;3.80;;
60859;SDS011;46694;54.382;9.708;2022-09-17T03:38:25;30.87;;;4.87;;
60859;SDS011;46694;54.382;9.708;2022-09-17T03:41:05;36.47;;;4.50;;
60859;SDS011;46694;54.382;9.708;2022-09-17T03:43:45;35.93;;;5.50;;
60859;SDS011;46694;54.382;9.708;2022-09-17T03:46:24;33.17;;;4.93;;
60859;SDS011;46694;54.382;9.708;2022-09-17T03:49:04;28.30;;;4.50;;
60859;SDS011;46694;54.382;9.708;2022-09-17T03:51:44;23.73;;;3.87;;
60859;SDS011;46694;54.382;9.708;2022-09-17T03:54:23;39.33;;;5.27;;
60859;SDS011;46694;54.382;9.708;2022-09-17T03:57:03;37.37;;;4.17;;
60859;SDS011;46694;54.382;9.708;2022-09-17T03:59:43;26.50;;;4.63;;
60859;SDS011;46694;54.382;9.708;2022-09-17T04:02:22;31.47;;;3.70;;
60859;SDS011;46694;54.382;9.708;2022-09-17T04:05:02;44.97;;;4.40;;
60859;SDS011;46694;54.382;9.708;2022-09-17T04:07:42;24.00;;;4.10;;
60859;SDS011;46694;54.382;9.708;2022-09-17T04:10:22;32.17;;;5.37;;
60859;SDS011;46694;54.382;9.708;2022-09-17T04:13:01;23.27;;;3.67;;
60859;SDS011;46694;54.382;9.708;2022-09-17T04:15:41;30.13;;;4.33;;
60859;SDS011;46694;54.382;9.708;2022-09-17T04:18:21;32.17;;;4.53;;
60859;SDS011;46694;54.382;9.708;2022-09-17T04:21:00;30.57;;;4.30;;
60859;SDS011;46694;54.382;9.708;2022-09-17T04:23:40;34.83;;;4.93;;
60859;SDS011;46694;54.382;9.708;2022-09-17T04:26:19;34.53;;;3.70;;
60859;SDS011;46694;54.382;9.708;2022-09-17T04:28:59;32.37;;;4.47;;
60859;SDS011;46694;54.382;9.708;2022-09-17T04:31:39;16.63;;;3.77;;
60859;SDS011;46694;54.382;9.708;2022-09-17T04:34:18;21.67;;;3.37;;
60859;SDS011;46694;54.382;9.708;2022-09-17T04:36:58;19.07;;;4.03;;
60859;SDS011;46694;54.382;9.708;2022-09-17T04:39:38;30.90;;;4.00;;
60859;SDS011;46694;54.382;9.708;2022-09-17T04:42:17;39.47;;;4.57;;
60859;SDS011;46694;54.382;9.708;2022-09-17T04:44:57;36.80;;;4.77;;
60859;SDS011;46694;54.382;9.708;2022-09-17T04:47:37;27.77;;;3.60;;
60859;SDS011;46694;54.382;9.708;2022-09-17T04:50:17;31.13;;;4.80;;
60859;SDS011;46694;54.382;9.708;2022-09-17T04:52:57;20.33;;;3.53;;
60859;SDS011;46694;54.382;9.708;2022-09-17T04:55:37;33.80;;;3.40;;
60859;SDS011;46694;54.382;9.708;2022-09-17T04:58:17;26.27;;;4.67;;
60859;SDS011;46694;54.382;9.708;2022-09-17T05:00:56;21.20;;;4.13;;
60859;SDS011;46694;54.382;9.708;2022-09-17T05:03:36;43.00;;;5.67;;
60859;SDS011;46694;54.382;9.708;2022-09-17T05:06:16;27.23;;;4.47;;
60859;SDS011;46694;54.382;9.708;2022-09-17T05:08:55;27.10;;;4.70;;
60859;SDS011;46694;54.382;9.708;2022-09-17T05:11:35;17.70;;;3.83;;
60859;SDS011;46694;54.382;9.708;2022-09-17T05:14:14;26.73;;;4.90;;
60859;SDS011;46694;54.382;9.708;2022-09-17T05:16:54;33.27;;;5.03;;
60859;SDS011;46694;54.382;9.708;2022-09-17T05:19:33;31.70;;;3.90;;
60859;SDS011;46694;54.382;9.708;2022-09-17T05:22:13;33.83;;;4.63;;
60859;SDS011;46694;54.382;9.708;2022-09-17T05:24:53;31.83;;;3.73;;
60859;SDS011;46694;54.382;9.708;2022-09-17T05:27:32;32.30;;;4.37;;
60859;SDS011;46694;54.382;9.708;2022-09-17T05:30:12;32.47;;;5.17;;
60859;SDS011;46694;54.382;9.708;2022-09-17T05:32:58;32.13;;;5.03;;
60859;SDS011;46694;54.382;9.708;2022-09-17T05:35:39;38.57;;;5.10;;
60859;SDS011;46694;54.382;9.708;2022-09-17T05:38:21;19.77;;;3.93;;
60859;SDS011;46694;54.382;9.708;2022-09-17T05:41:04;27.30;;;4.37;;
60859;SDS011;46694;54.382;9.708;2022-09-17T05:43:45;23.10;;;3.20;;
60859;SDS011;46694;54.382;9.708;2022-09-17T05:46:24;32.67;;;4.67;;
60859;SDS011;46694;54.382;9.708;2022-09-17T05:49:04;35.00;;;4.80;;
60859;SDS011;46694;54.382;9.708;2022-09-17T05:51:43;28.73;;;4.27;;
60859;SDS011;46694;54.382;9.708;2022-09-17T05:54:23;21.63;;;3.50;;
60859;SDS011;46694;54.382;9.708;2022-09-17T05:57:03;24.33;;;5.17;;
60859;SDS011;46694;54.382;9.708;2022-09-17T05:59:43;47.67;;;6.07;;
60859;SDS011;46694;54.382;9.708;2022-09-17T06:02:23;24.10;;;3.73;;
60859;SDS011;46694;54.382;9.708;2022-09-17T06:05:03;34.27;;;4.70;;
60859;SDS011;46694;54.382;9.708;2022-09-17T06:07:43;39.63;;;4.33;;
60859;SDS011;46694;54.382;9.708;2022-09-17T06:10:22;24.30;;;3.60;;
60859;SDS011;46694;54.382;9.708;2022-09-17T06:13:02;23.63;;;4.30;;
60859;SDS011;46694;54.382;9.708;2022-09-17T06:15:42;34.07;;;4.77;;
60859;SDS011;46694;54.382;9.708;2022-09-17T06:18:30;27.47;;;4.83;;
60859;SDS011;46694;54.382;9.708;2022-09-17T06:21:10;32.17;;;4.97;;
60859;SDS011;46694;54.382;9.708;2022-09-17T06:23:50;27.87;;;4.80;;
60859;SDS011;46694;54.382;9.708;2022-09-17T06:26:29;23.50;;;4.73;;
60859;SDS011;46694;54.382;9.708;2022-09-17T06:29:08;15.87;;;3.13;;
60859;SDS011;46694;54.382;9.708;2022-09-17T06:31:48;29.43;;;4.00;;
60859;SDS011;46694;54.382;9.708;2022-09-17T06:34:28;31.13;;;4.57;;
60859;SDS011;46694;54.382;9.708;2022-09-17T06:37:07;27.47;;;5.00;;
60859;SDS011;46694;54.382;9.708;2022-09-17T06:39:47;19.90;;;2.60;;
60859;SDS011;46694;54.382;9.708;2022-09-17T06:42:27;28.23;;;4.10;;
60859;SDS011;46694;54.382;9.708;2022-09-17T06:45:07;26.50;;;3.70;;
60859;SDS011;46694;54.382;9.708;2022-09-17T06:47:46;21.30;;;3.97;;
60859;SDS011;46694;54.382;9.708;2022-09-17T06:50:26;29.90;;;3.43;;
60859;SDS011;46694;54.382;9.708;2022-09-17T06:53:06;17.93;;;3.03;;
60859;SDS011;46694;54.382;9.708;2022-09-17T06:55:47;21.10;;;3.33;;
60859;SDS011;46694;54.382;9.708;2022-09-17T06:58:28;27.23;;;3.70;;
60859;SDS011;46694;54.382;9.708;2022-09-17T07:01:11;21.23;;;3.33;;
60859;SDS011;46694;54.382;9.708;2022-09-17T07:03:52;22.67;;;3.50;;
60859;SDS011;46694;54.382;9.708;2022-09-17T07:06:32;19.20;;;3.00;;
60859;SDS011;46694;54.382;9.708;2022-09-17T07:09:12;13.40;;;3.10;;
60859;SDS011;46694;54.382;9.708;2022-09-17T07:11:51;20.77;;;2.90;;
60859;SDS011;46694;54.382;9.708;2022-09-17T07:14:31;23.27;;;3.47;;
60859;SDS011;46694;54.382;9.708;2022-09-17T07:17:11;19.60;;;3.90;;
60859;SDS011;46694;54.382;9.708;2022-09-17T07:19:51;12.73;;;2.60;;
60859;SDS011;46694;54.382;9.708;2022-09-17T07:22:30;32.13;;;4.20;;
60859;SDS011;46694;54.382;9.708;2022-09-17T07:25:10;20.00;;;3.23;;
60859;SDS011;46694;54.382;9.708;2022-09-17T07:27:51;17.43;;;2.57;;
60859;SDS011;46694;54.382;9.708;2022-09-17T07:30:31;22.63;;;3.80;;
60859;SDS011;46694;54.382;9.708;2022-09-17T07:33:10;24.53;;;3.80;;
60859;SDS011;46694;54.382;9.708;2022-09-17T07:35:57;31.17;;;2.93;;
60859;SDS011;46694;54.382;9.708;2022-09-17T07:38:43;23.73;;;3.47;;
60859;SDS011;46694;54.382;9.708;2022-09-17T07:41:22;25.20;;;3.17;;
60859;SDS011;46694;54.382;9.708;2022-09-17T07:44:02;24.87;;;3.33;;
60859;SDS011;46694;54.382;9.708;2022-09-17T07:46:42;15.27;;;3.23;;
60859;SDS011;46694;54.382;9.708;2022-09-17T07:49:21;29.70;;;3.90;;
60859;SDS011;46694;54.382;9.708;2022-09-17T07:52:01;25.40;;;3.70;;
60859;SDS011;46694;54.382;9.708;2022-09-17T07:54:43;26.57;;;2.77;;
60859;SDS011;46694;54.382;9.708;2022-09-17T07:57:23;24.57;;;4.47;;
60859;SDS011;46694;54.382;9.708;2022-09-17T08:00:02;22.77;;;3.13;;
60859;SDS011;46694;54.382;9.708;2022-09-17T08:02:43;25.67;;;4.10;;
60859;SDS011;46694;54.382;9.708;2022-09-17T08:05:23;18.47;;;2.70;;
60859;SDS011;46694;54.382;9.708;2022-09-17T08:08:03;20.57;;;3.70;;
60859;SDS011;46694;54.382;9.708;2022-09-17T08:10:42;16.70;;;3.23;;
60859;SDS011;46694;54.382;9.708;2022-09-17T08:13:22;14.40;;;2.70;;
60859;SDS011;46694;54.382;9.708;2022-09-17T08:16:03;23.40;;;3.47;;
60859;SDS011;46694;54.382;9.708;2022-09-17T08:18:46;17.43;;;2.50;;
60859;SDS011;46694;54.382;9.708;2022-09-17T08:21:27;25.40;;;3.40;;
60859;SDS011;46694;54.382;9.708;2022-09-17T08:24:07;23.20;;;2.80;;
60859;SDS011;46694;54.382;9.708;2022-09-17T08:26:46;17.53;;;2.53;;
60859;SDS011;46694;54.382;9.708;2022-09-17T08:29:26;18.53;;;2.70;;
60859;SDS011;46694;54.382;9.708;2022-09-17T08:32:06;27.53;;;3.17;;
60859;SDS011;46694;54.382;9.708;2022-09-17T08:34:45;13.10;;;2.13;;
60859;SDS011;46694;54.382;9.708;2022-09-17T08:37:26;20.60;;;2.73;;
60859;SDS011;46694;54.382;9.708;2022-09-17T08:40:11;29.67;;;2.90;;
60859;SDS011;46694;54.382;9.708;2022-09-17T08:42:58;18.80;;;2.83;;
60859;SDS011;46694;54.382;9.708;2022-09-17T08:45:39;18.30;;;2.63;;
60859;SDS011;46694;54.382;9.708;2022-09-17T08:48:19;18.07;;;3.43;;
60859;SDS011;46694;54.382;9.708;2022-09-17T08:51:01;21.63;;;3.13;;
60859;SDS011;46694;54.382;9.708;2022-09-17T08:54:00;12.37;;;2.67;;
60859;SDS011;46694;54.382;9.708;2022-09-17T08:57:38;22.87;;;3.90;;
60859;SDS011;46694;54.382;9.708;2022-09-17T09:00:23;21.53;;;3.03;;
60859;SDS011;46694;54.382;9.708;2022-09-17T09:06:20;21.40;;;3.00;;
60859;SDS011;46694;54.382;9.708;2022-09-17T09:09:09;18.43;;;4.03;;
60859;SDS011;46694;54.382;9.708;2022-09-17T09:11:59;25.37;;;3.10;;
60859;SDS011;46694;54.382;9.708;2022-09-17T09:17:37;21.37;;;3.43;;
60859;SDS011;46694;54.382;9.708;2022-09-17T09:23:19;25.17;;;4.10;;
60859;SDS011;46694;54.382;9.708;2022-09-17T09:35:15;17.13;;;2.83;;
60859;SDS011;46694;54.382;9.708;2022-09-17T09:40:56;22.33;;;3.70;;
60859;SDS011;46694;54.382;9.708;2022-09-17T09:43:52;19.73;;;3.27;;
60859;SDS011;46694;54.382;9.708;2022-09-17T09:49:59;13.57;;;2.50;;
60859;SDS011;46694;54.382;9.708;2022-09-17T09:58:39;15.17;;;2.43;;
60859;SDS011;46694;54.382;9.708;2022-09-17T10:01:19;13.50;;;2.70;;
60859;SDS011;46694;54.382;9.708;2022-09-17T10:03:58;13.87;;;2.50;;
60859;SDS011;46694;54.382;9.708;2022-09-17T10:06:38;9.87;;;2.63;;
60859;SDS011;46694;54.382;9.708;2022-09-17T10:09:19;15.27;;;2.83;;
60859;SDS011;46694;54.382;9.708;2022-09-17T10:14:47;17.57;;;2.43;;
60859;SDS011;46694;54.382;9.708;2022-09-17T10:17:26;17.80;;;2.60;;
60859;SDS011;46694;54.382;9.708;2022-09-17T10:20:11;13.23;;;1.83;;
60859;SDS011;46694;54.382;9.708;2022-09-17T10:22:55;15.93;;;3.00;;
60859;SDS011;46694;54.382;9.708;2022-09-17T10:25:34;13.20;;;2.40;;
60859;SDS011;46694;54.382;9.708;2022-09-17T10:31:49;13.10;;;1.90;;
60859;SDS011;46694;54.382;9.708;2022-09-17T10:34:31;11.53;;;2.20;;
60859;SDS011;46694;54.382;9.708;2022-09-17T10:37:57;10.20;;;1.90;;
60859;SDS011;46694;54.382;9.708;2022-09-17T10:40:24;10.53;;;1.80;;
60859;SDS011;46694;54.382;9.708;2022-09-17T10:45:54;4.70;;;0.90;;
60859;SDS011;46694;54.382;9.708;2022-09-17T10:48:39;4.30;;;0.60;;
60859;SDS011;46694;54.382;9.708;2022-09-17T10:51:29;5.73;;;0.90;;
60859;SDS011;46694;54.382;9.708;2022-09-17T10:56:54;9.23;;;0.80;;
60859;SDS011;46694;54.382;9.708;2022-09-17T11:08:38;5.90;;;0.80;;
60859;SDS011;46694;54.382;9.708;2022-09-17T11:15:19;7.20;;;0.90;;
60859;SDS011;46694;54.382;9.708;2022-09-17T11:21:24;7.77;;;1.20;;
60859;SDS011;46694;54.382;9.708;2022-09-17T11:30:39;8.50;;;1.30;;
60859;SDS011;46694;54.382;9.708;2022-09-17T11:37:03;13.07;;;1.67;;
60859;SDS011;46694;54.382;9.708;2022-09-17T11:43:25;12.13;;;1.10;;
60859;SDS011;46694;54.382;9.708;2022-09-17T11:46:09;6.90;;;1.10;;
60859;SDS011;46694;54.382;9.708;2022-09-17T11:49:01;5.93;;;0.83;;
60859;SDS011;46694;54.382;9.708;2022-09-17T11:52:08;7.77;;;1.13;;
60859;SDS011;46694;54.382;9.708;2022-09-17T11:58:07;8.37;;;1.03;;
60859;SDS011;46694;54.382;9.708;2022-09-17T12:01:10;7.90;;;1.10;;
60859;SDS011;46694;54.382;9.708;2022-09-17T12:04:01;7.40;;;1.13;;
60859;SDS011;46694;54.382;9.708;2022-09-17T12:07:24;11.30;;;1.37;;
60859;SDS011;46694;54.382;9.708;2022-09-17T12:13:01;10.90;;;1.20;;
60859;SDS011;46694;54.382;9.708;2022-09-17T12:16:07;10.60;;;1.20;;
60859;SDS011;46694;54.382;9.708;2022-09-17T12:19:02;6.77;;;0.70;;
60859;SDS011;46694;54.382;9.708;2022-09-17T12:22:12;9.90;;;1.20;;
60859;SDS011;46694;54.382;9.708;2022-09-17T12:25:01;12.53;;;0.90;;
60859;SDS011;46694;54.382;9.708;2022-09-17T12:31:19;13.23;;;0.90;;
60859;SDS011;46694;54.382;9.708;2022-09-17T12:34:29;14.03;;;1.10;;
60859;SDS011;46694;54.382;9.708;2022-09-17T12:37:40;7.10;;;1.00;;
60859;SDS011;46694;54.382;9.708;2022-09-17T12:41:18;12.03;;;1.40;;
60859;SDS011;46694;54.382;9.708;2022-09-17T12:57:53;6.10;;;0.70;;
60859;SDS011;46694;54.382;9.708;2022-09-17T13:00:18;9.10;;;1.10;;
60859;SDS011;46694;54.382;9.708;2022-09-17T13:18:10;11.93;;;0.80;;
60859;SDS011;46694;54.382;9.708;2022-09-17T13:21:16;6.30;;;0.90;;
60859;SDS011;46694;54.382;9.708;2022-09-17T13:24:02;6.97;;;0.70;;
60859;SDS011;46694;54.382;9.708;2022-09-17T13:26:58;5.33;;;0.83;;
60859;SDS011;46694;54.382;9.708;2022-09-17T13:32:41;6.67;;;0.70;;
60859;SDS011;46694;54.382;9.708;2022-09-17T13:38:11;3.00;;;0.63;;
60859;SDS011;46694;54.382;9.708;2022-09-17T13:40:59;3.10;;;0.83;;
60859;SDS011;46694;54.382;9.708;2022-09-17T13:43:59;1.70;;;0.70;;
60859;SDS011;46694;54.382;9.708;2022-09-17T13:46:42;1.50;;;0.40;;
60859;SDS011;46694;54.382;9.708;2022-09-17T13:49:22;4.03;;;1.00;;
60859;SDS011;46694;54.382;9.708;2022-09-17T13:52:02;4.27;;;0.93;;
60859;SDS011;46694;54.382;9.708;2022-09-17T13:54:42;2.10;;;0.63;;
60859;SDS011;46694;54.382;9.708;2022-09-17T13:57:23;4.30;;;0.90;;
60859;SDS011;46694;54.382;9.708;2022-09-17T14:00:05;2.33;;;0.60;;
60859;SDS011;46694;54.382;9.708;2022-09-17T14:02:48;3.20;;;0.80;;
60859;SDS011;46694;54.382;9.708;2022-09-17T14:05:30;3.73;;;0.80;;
60859;SDS011;46694;54.382;9.708;2022-09-17T14:08:14;3.27;;;0.60;;
60859;SDS011;46694;54.382;9.708;2022-09-17T14:22:15;2.60;;;0.40;;
60859;SDS011;46694;54.382;9.708;2022-09-17T14:25:02;2.60;;;0.63;;
60859;SDS011;46694;54.382;9.708;2022-09-17T14:30:38;2.70;;;0.40;;
60859;SDS011;46694;54.382;9.708;2022-09-17T14:33:23;3.10;;;0.50;;
60859;SDS011;46694;54.382;9.708;2022-09-17T14:36:19;3.67;;;0.80;;
60859;SDS011;46694;54.382;9.708;2022-09-17T14:38:59;1.57;;;0.50;;
60859;SDS011;46694;54.382;9.708;2022-09-17T14:41:39;3.07;;;0.53;;
60859;SDS011;46694;54.382;9.708;2022-09-17T14:44:23;3.30;;;0.53;;
60859;SDS011;46694;54.382;9.708;2022-09-17T14:47:10;2.70;;;0.50;;
60859;SDS011;46694;54.382;9.708;2022-09-17T14:50:08;7.27;;;0.73;;
60859;SDS011;46694;54.382;9.708;2022-09-17T14:53:05;5.83;;;0.40;;
60859;SDS011;46694;54.382;9.708;2022-09-17T14:55:50;1.30;;;0.40;;
60859;SDS011;46694;54.382;9.708;2022-09-17T14:58:31;3.43;;;0.57;;
60859;SDS011;46694;54.382;9.708;2022-09-17T15:01:21;2.67;;;0.60;;
60859;SDS011;46694;54.382;9.708;2022-09-17T15:06:52;2.40;;;0.73;;
60859;SDS011;46694;54.382;9.708;2022-09-17T15:09:46;2.87;;;0.63;;
60859;SDS011;46694;54.382;9.708;2022-09-17T15:12:27;4.27;;;1.00;;
60859;SDS011;46694;54.382;9.708;2022-09-17T15:15:15;3.23;;;0.80;;
60859;SDS011;46694;54.382;9.708;2022-09-17T15:18:01;5.83;;;1.00;;
60859;SDS011;46694;54.382;9.708;2022-09-17T15:20:41;4.30;;;0.97;;
60859;SDS011;46694;54.382;9.708;2022-09-17T15:23:25;3.60;;;0.60;;
60859;SDS011;46694;54.382;9.708;2022-09-17T15:26:07;4.43;;;0.70;;
60859;SDS011;46694;54.382;9.708;2022-09-17T15:28:47;5.07;;;1.07;;
60859;SDS011;46694;54.382;9.708;2022-09-17T15:31:28;3.83;;;1.20;;
60859;SDS011;46694;54.382;9.708;2022-09-17T15:34:11;7.10;;;1.00;;
60859;SDS011;46694;54.382;9.708;2022-09-17T15:39:59;5.07;;;1.33;;
60859;SDS011;46694;54.382;9.708;2022-09-17T15:43:22;5.93;;;1.70;;
60859;SDS011;46694;54.382;9.708;2022-09-17T15:46:30;9.63;;;1.70;;
60859;SDS011;46694;54.382;9.708;2022-09-17T15:52:30;7.93;;;1.30;;
60859;SDS011;46694;54.382;9.708;2022-09-17T15:58:26;6.00;;;1.60;;
60859;SDS011;46694;54.382;9.708;2022-09-17T16:06:45;8.17;;;1.57;;
60859;SDS011;46694;54.382;9.708;2022-09-17T16:09:40;7.27;;;1.90;;
60859;SDS011;46694;54.382;9.708;2022-09-17T16:12:28;8.60;;;1.20;;
60859;SDS011;46694;54.382;9.708;2022-09-17T16:15:08;5.23;;;1.33;;
60859;SDS011;46694;54.382;9.708;2022-09-17T16:17:48;6.10;;;2.07;;
60859;SDS011;46694;54.382;9.708;2022-09-17T16:20:28;5.03;;;1.80;;
60859;SDS011;46694;54.382;9.708;2022-09-17T16:23:07;10.03;;;2.13;;
60859;SDS011;46694;54.382;9.708;2022-09-17T16:25:47;10.10;;;1.93;;
60859;SDS011;46694;54.382;9.708;2022-09-17T16:28:28;3.83;;;1.27;;
60859;SDS011;46694;54.382;9.708;2022-09-17T16:31:08;10.93;;;1.80;;
60859;SDS011;46694;54.382;9.708;2022-09-17T16:33:51;6.03;;;1.90;;
60859;SDS011;46694;54.382;9.708;2022-09-17T16:36:32;8.93;;;2.67;;
60859;SDS011;46694;54.382;9.708;2022-09-17T16:39:12;8.87;;;1.53;;
60859;SDS011;46694;54.382;9.708;2022-09-17T16:41:51;10.07;;;2.03;;
60859;SDS011;46694;54.382;9.708;2022-09-17T16:44:31;5.83;;;1.20;;
60859;SDS011;46694;54.382;9.708;2022-09-17T16:47:12;11.73;;;1.97;;
60859;SDS011;46694;54.382;9.708;2022-09-17T16:49:51;8.10;;;1.30;;
60859;SDS011;46694;54.382;9.708;2022-09-17T16:52:30;8.03;;;1.80;;
60859;SDS011;46694;54.382;9.708;2022-09-17T16:55:11;11.97;;;1.70;;
60859;SDS011;46694;54.382;9.708;2022-09-17T16:57:55;7.83;;;1.33;;
60859;SDS011;46694;54.382;9.708;2022-09-17T17:00:36;10.77;;;1.60;;
60859;SDS011;46694;54.382;9.708;2022-09-17T17:03:15;11.63;;;1.50;;
60859;SDS011;46694;54.382;9.708;2022-09-17T17:05:55;9.13;;;1.60;;
60859;SDS011;46694;54.382;9.708;2022-09-17T17:08:35;12.50;;;2.37;;
60859;SDS011;46694;54.382;9.708;2022-09-17T17:11:14;7.13;;;1.40;;
60859;SDS011;46694;54.382;9.708;2022-09-17T17:13:54;8.03;;;1.50;;
60859;SDS011;46694;54.382;9.708;2022-09-17T17:16:33;11.07;;;1.90;;
60859;SDS011;46694;54.382;9.708;2022-09-17T17:19:13;7.63;;;1.33;;
60859;SDS011;46694;54.382;9.708;2022-09-17T17:21:52;8.20;;;1.93;;
60859;SDS011;46694;54.382;9.708;2022-09-17T17:24:32;8.60;;;1.90;;
60859;SDS011;46694;54.382;9.708;2022-09-17T17:27:11;12.40;;;1.60;;
60859;SDS011;46694;54.382;9.708;2022-09-17T17:29:52;6.40;;;1.93;;
60859;SDS011;46694;54.382;9.708;2022-09-17T17:32:32;7.60;;;1.30;;
60859;SDS011;46694;54.382;9.708;2022-09-17T17:35:12;8.40;;;2.00;;
60859;SDS011;46694;54.382;9.708;2022-09-17T17:37:52;7.13;;;2.90;;
60859;SDS011;46694;54.382;9.708;2022-09-17T17:40:31;17.77;;;4.70;;
60859;SDS011;46694;54.382;9.708;2022-09-17T17:43:11;12.80;;;4.03;;
60859;SDS011;46694;54.382;9.708;2022-09-17T17:45:51;34.50;;;6.27;;
60859;SDS011;46694;54.382;9.708;2022-09-17T17:48:30;55.80;;;8.77;;
60859;SDS011;46694;54.382;9.708;2022-09-17T17:51:10;34.03;;;4.90;;
60859;SDS011;46694;54.382;9.708;2022-09-17T17:53:49;15.83;;;4.10;;
60859;SDS011;46694;54.382;9.708;2022-09-17T17:56:29;24.83;;;3.47;;
60859;SDS011;46694;54.382;9.708;2022-09-17T17:59:09;19.20;;;3.10;;
60859;SDS011;46694;54.382;9.708;2022-09-17T18:01:48;12.63;;;2.10;;
60859;SDS011;46694;54.382;9.708;2022-09-17T18:04:28;17.20;;;2.57;;
60859;SDS011;46694;54.382;9.708;2022-09-17T18:07:07;13.30;;;3.60;;
60859;SDS011;46694;54.382;9.708;2022-09-17T18:09:47;12.53;;;2.23;;
60859;SDS011;46694;54.382;9.708;2022-09-17T18:12:27;13.63;;;2.70;;
60859;SDS011;46694;54.382;9.708;2022-09-17T18:15:07;14.67;;;2.27;;
60859;SDS011;46694;54.382;9.708;2022-09-17T18:17:47;19.33;;;3.57;;
60859;SDS011;46694;54.382;9.708;2022-09-17T18:20:27;12.47;;;2.33;;
60859;SDS011;46694;54.382;9.708;2022-09-17T18:23:07;15.13;;;3.07;;
60859;SDS011;46694;54.382;9.708;2022-09-17T18:25:56;19.60;;;2.90;;
60859;SDS011;46694;54.382;9.708;2022-09-17T18:28:38;22.00;;;2.87;;
60859;SDS011;46694;54.382;9.708;2022-09-17T18:34:08;15.47;;;2.77;;
60859;SDS011;46694;54.382;9.708;2022-09-17T18:36:52;20.13;;;3.57;;
60859;SDS011;46694;54.382;9.708;2022-09-17T18:39:32;20.37;;;2.90;;
60859;SDS011;46694;54.382;9.708;2022-09-17T18:42:11;15.33;;;3.23;;
60859;SDS011;46694;54.382;9.708;2022-09-17T18:44:51;20.63;;;2.70;;
60859;SDS011;46694;54.382;9.708;2022-09-17T18:47:30;13.50;;;2.67;;
60859;SDS011;46694;54.382;9.708;2022-09-17T18:50:10;12.40;;;2.67;;
60859;SDS011;46694;54.382;9.708;2022-09-17T18:52:52;18.30;;;2.33;;
60859;SDS011;46694;54.382;9.708;2022-09-17T18:55:31;34.43;;;3.93;;
60859;SDS011;46694;54.382;9.708;2022-09-17T18:58:11;26.07;;;3.40;;
60859;SDS011;46694;54.382;9.708;2022-09-17T19:00:51;17.60;;;2.83;;
60859;SDS011;46694;54.382;9.708;2022-09-17T19:03:30;19.43;;;2.80;;
60859;SDS011;46694;54.382;9.708;2022-09-17T19:06:13;26.90;;;3.73;;
60859;SDS011;46694;54.382;9.708;2022-09-17T19:08:57;26.67;;;4.63;;
60859;SDS011;46694;54.382;9.708;2022-09-17T19:11:38;15.70;;;3.90;;
60859;SDS011;46694;54.382;9.708;2022-09-17T19:14:18;20.47;;;4.10;;
60859;SDS011;46694;54.382;9.708;2022-09-17T19:16:57;17.63;;;4.03;;
60859;SDS011;46694;54.382;9.708;2022-09-17T19:19:37;22.63;;;3.80;;
60859;SDS011;46694;54.382;9.708;2022-09-17T19:22:17;20.87;;;4.17;;
60859;SDS011;46694;54.382;9.708;2022-09-17T19:24:56;12.17;;;2.70;;
60859;SDS011;46694;54.382;9.708;2022-09-17T19:27:36;17.33;;;3.13;;
60859;SDS011;46694;54.382;9.708;2022-09-17T19:30:15;17.13;;;3.17;;
60859;SDS011;46694;54.382;9.708;2022-09-17T19:32:55;15.73;;;2.80;;
60859;SDS011;46694;54.382;9.708;2022-09-17T19:35:38;23.93;;;2.60;;